Time;durP1;ratioP1;P1;durP2;ratioP2;P2;SDS_P1;SDS_P2;PMS_P1;PMS_P2;Temp;Humidity;BMP_temperature;BMP_pressure;BME280_temperature;BME280_humidity;BME280_pressure;Samples;Min_cycle;Max_cycle;Signal;HPM_P1;HPM_P2
2024/02/09 00:00:42;;;;;;;0.30;0.30;;;;;;;0.71;100.00;98647.28;5113502;27;20104;-86
2024/02/09 00:03:14;;;;;;;0.70;0.70;;;;;;;0.77;100.00;98644.69;5125295;27;20035;-86
2024/02/09 00:06:02;;;;;;;0.45;0.45;;;;;;;0.82;100.00;98650.69;5142748;27;20092;-86
2024/02/09 00:08:30;;;;;;;0.60;0.60;;;;;;;0.75;100.00;98649.84;5143922;27;20110;-84
2024/02/09 00:10:56;;;;;;;0.70;0.70;;;;;;;0.77;100.00;98639.53;5132788;27;20414;-84
2024/02/09 00:13:23;;;;;;;0.80;0.35;;;;;;;0.77;100.00;98637.84;5108872;27;20132;-86
2024/02/09 00:15:50;;;;;;;0.68;0.68;;;;;;;0.72;100.00;98630.97;5107571;27;20039;-84
2024/02/09 00:18:20;;;;;;;0.68;0.57;;;;;;;0.75;100.00;98638.69;5110658;27;20088;-84
2024/02/09 00:20:50;;;;;;;1.08;0.30;;;;;;;0.78;100.00;98630.94;5107162;28;20054;-83
2024/02/09 00:23:18;;;;;;;1.88;0.30;;;;;;;0.81;100.00;98630.97;5114106;27;20050;-85
2024/02/09 00:25:49;;;;;;;1.33;1.23;;;;;;;0.71;100.00;98617.22;5129778;27;20035;-84
2024/02/09 00:28:16;;;;;;;0.50;0.50;;;;;;;0.73;100.00;98622.38;5113083;27;20182;-84
2024/02/09 00:30:45;;;;;;;0.22;0.20;;;;;;;0.69;100.00;98621.50;5118838;28;20062;-86
2024/02/09 00:33:12;;;;;;;2.55;0.65;;;;;;;0.73;100.00;98607.81;5113329;27;20543;-83
2024/02/09 00:35:40;;;;;;;0.63;0.63;;;;;;;0.71;100.00;98606.09;5105795;28;20078;-85
2024/02/09 00:38:09;;;;;;;0.50;0.50;;;;;;;0.69;100.00;98605.22;5119594;27;20040;-86
2024/02/09 00:40:39;;;;;;;0.68;0.47;;;;;;;0.68;100.00;98606.94;5125215;27;20059;-85
2024/02/09 00:43:11;;;;;;;0.80;0.80;;;;;;;0.71;100.00;98590.63;5126152;27;20039;-86
2024/02/09 00:45:40;;;;;;;0.43;0.43;;;;;;;0.68;100.00;98585.47;5126380;27;20043;-85
2024/02/09 00:48:27;;;;;;;0.60;0.60;;;;;;;0.69;100.00;98577.75;5113550;27;20518;-85
2024/02/09 00:50:57;;;;;;;0.88;0.88;;;;;;;0.70;100.00;98576.88;5108695;28;20081;-85
2024/02/09 00:53:29;;;;;;;1.00;0.93;;;;;;;0.67;100.00;98573.50;5108969;28;20075;-86
2024/02/09 00:55:57;;;;;;;0.52;0.52;;;;;;;0.67;100.00;98576.06;5107952;27;20055;-85
2024/02/09 00:58:23;;;;;;;1.13;0.90;;;;;;;0.73;100.00;98578.59;5106312;28;20494;-85
2024/02/09 01:00:50;;;;;;;2.22;1.55;;;;;;;0.75;100.00;98569.16;5110278;28;20051;-84
2024/02/09 01:03:20;;;;;;;0.55;0.55;;;;;;;0.72;100.00;98570.03;5112471;27;20047;-85
2024/02/09 01:05:47;;;;;;;1.23;1.05;;;;;;;0.71;100.00;98563.16;5127656;27;20498;-84
2024/02/09 01:08:15;;;;;;;1.10;0.90;;;;;;;0.75;100.00;98572.56;5109690;27;20047;-85
2024/02/09 01:10:42;;;;;;;1.33;1.23;;;;;;;0.77;100.00;98585.44;5112474;27;20240;-84
2024/02/09 02:46:36;;;;;;;3.47;2.30;;;;;;;0.84;100.00;98444.66;5007467;28;20037;-85
2024/02/09 03:05:43;;;;;;;3.85;2.53;;;;;;;1.38;100.00;98406.47;5008127;28;20061;-83
2024/02/09 03:08:12;;;;;;;2.13;1.92;;;;;;;1.33;100.00;98392.78;5010511;28;20053;-84
2024/02/09 03:10:40;;;;;;;4.07;2.50;;;;;;;1.25;100.00;98395.44;5009762;28;20038;-85
2024/02/09 03:13:07;;;;;;;3.22;2.58;;;;;;;1.27;100.00;98385.94;5027444;28;20412;-85
2024/02/09 03:15:35;;;;;;;4.20;2.85;;;;;;;1.34;100.00;98385.91;5016061;28;20842;-84
2024/02/09 03:18:05;;;;;;;3.55;2.75;;;;;;;1.26;100.00;98373.06;5034093;27;20046;-83
2024/02/09 03:20:34;;;;;;;3.05;2.30;;;;;;;1.28;100.00;98363.63;5007801;28;20046;-85
2024/02/09 03:23:03;;;;;;;3.50;2.47;;;;;;;1.24;100.00;98360.19;5095005;27;20045;-84
2024/02/09 03:25:30;;;;;;;2.03;1.83;;;;;;;1.22;100.00;98361.94;5027997;28;20053;-85
2024/02/09 03:28:02;;;;;;;2.55;1.90;;;;;;;1.21;100.00;98349.91;5013823;28;20060;-84
2024/02/09 03:30:29;;;;;;;2.40;1.95;;;;;;;1.27;100.00;98339.56;5113477;27;20118;-84
2024/02/09 03:32:56;;;;;;;3.08;2.70;;;;;;;1.35;100.00;98338.63;5107553;27;20046;-83
2024/02/09 03:35:25;;;;;;;2.67;2.47;;;;;;;1.30;100.00;98336.09;5112885;27;20472;-85
2024/02/09 03:37:52;;;;;;;2.30;1.95;;;;;;;1.28;100.00;98328.38;5124440;27;20076;-84
2024/02/09 03:40:19;;;;;;;2.05;1.90;;;;;;;1.30;100.00;98334.38;5105477;27;20044;-82
2024/02/09 03:42:48;;;;;;;3.28;2.85;;;;;;;1.28;100.00;98328.38;5128616;27;20112;-84
2024/02/09 03:45:15;;;;;;;3.50;2.63;;;;;;;1.29;100.00;98317.22;5111167;27;20074;-85
2024/02/09 03:47:42;;;;;;;4.45;2.72;;;;;;;1.30;100.00;98313.75;5111845;27;20452;-84
2024/02/09 03:50:11;;;;;;;2.60;2.22;;;;;;;1.31;100.00;98306.88;5112614;27;20130;-84
2024/02/09 03:52:38;;;;;;;4.18;2.72;;;;;;;1.32;100.00;98306.84;5112998;27;20133;-85
2024/02/09 03:55:07;;;;;;;3.10;2.80;;;;;;;1.41;100.00;98299.88;5091131;27;20092;-85
2024/02/09 03:57:36;;;;;;;3.67;2.80;;;;;;;1.27;100.00;98288.00;5112090;27;20096;-84
2024/02/09 04:00:10;;;;;;;3.35;2.40;;;;;;;1.29;100.00;98296.59;5109982;27;20044;-85
2024/02/09 04:02:37;;;;;;;3.05;2.60;;;;;;;1.39;100.00;98294.75;5127491;27;20041;-84
2024/02/09 04:05:04;;;;;;;4.57;2.97;;;;;;;1.39;100.00;98283.59;5109322;27;20070;-86
2024/02/09 04:07:31;;;;;;;3.67;2.58;;;;;;;1.44;100.00;98290.41;5115211;27;20065;-84
2024/02/09 04:09:57;;;;;;;3.92;3.33;;;;;;;1.35;100.00;98287.94;5205409;22;20027;-82
2024/02/09 04:12:24;;;;;;;3.85;3.00;;;;;;;1.38;100.00;98293.03;5016829;28;20053;-86
2024/02/09 04:14:51;;;;;;;2.92;2.53;;;;;;;1.47;100.00;98287.81;5044348;28;20041;-85
2024/02/09 04:17:19;;;;;;;5.38;3.58;;;;;;;1.46;100.00;98290.38;5033609;28;20394;-85
2024/02/09 04:19:46;;;;;;;4.22;3.05;;;;;;;1.41;100.00;98287.00;5039468;28;20496;-84
2024/02/09 04:22:15;;;;;;;5.38;3.78;;;;;;;1.48;100.00;98286.09;5034825;28;20041;-85
2024/02/09 04:24:42;;;;;;;6.00;3.92;;;;;;;1.47;100.00;98279.22;5030840;28;20033;-85
2024/02/09 04:27:11;;;;;;;4.32;3.10;;;;;;;1.46;100.00;98267.19;5051135;28;20099;-85
2024/02/09 04:29:40;;;;;;;3.30;3.00;;;;;;;1.47;100.00;98268.91;5032053;28;20051;-85
2024/02/09 04:32:10;;;;;;;7.47;3.50;;;;;;;1.49;100.00;98269.75;5015840;28;20045;-86
2024/02/09 04:34:37;;;;;;;5.03;3.08;;;;;;;1.52;100.00;98263.72;5030035;28;20030;-85
2024/02/09 04:37:07;;;;;;;6.47;3.65;;;;;;;1.47;100.00;98261.16;5034971;28;20052;-85
2024/02/09 04:39:33;;;;;;;4.30;2.97;;;;;;;1.53;100.00;98261.09;5032710;28;20044;-85
2024/02/09 04:42:08;;;;;;;3.55;2.92;;;;;;;1.49;100.00;98252.53;5049530;28;20332;-85
2024/02/09 04:44:38;;;;;;;4.47;3.22;;;;;;;1.56;100.00;98250.75;5031173;28;20048;-86
2024/02/09 04:47:06;;;;;;;7.03;3.55;;;;;;;1.58;100.00;98255.91;5036656;28;20063;-86
2024/02/09 04:49:34;;;;;;;4.38;3.33;;;;;;;1.57;100.00;98249.03;5048328;28;20520;-84
2024/02/09 04:52:06;;;;;;;3.95;3.45;;;;;;;1.54;100.00;98239.63;5061448;28;20528;-84
2024/02/09 04:54:33;;;;;;;5.13;3.75;;;;;;;1.61;100.00;98240.38;5048145;28;20554;-84
2024/02/09 04:57:00;;;;;;;4.60;3.17;;;;;;;1.60;100.00;98243.84;5032074;28;20045;-85
2024/02/09 04:59:30;;;;;;;6.13;4.05;;;;;;;1.66;100.00;98246.34;5051291;28;20037;-85
2024/02/09 05:01:57;;;;;;;5.55;3.88;;;;;;;1.63;100.00;98230.91;5053584;28;20051;-85
2024/02/09 05:04:23;;;;;;;7.22;4.90;;;;;;;1.63;100.00;98233.47;5031639;28;20057;-86
2024/02/09 05:06:51;;;;;;;7.18;4.38;;;;;;;1.72;100.00;98235.09;5055276;28;20059;-84
2024/02/09 05:09:29;;;;;;;5.70;4.53;;;;;;;1.67;100.00;98224.84;5033029;28;20060;-85
2024/02/09 05:11:58;;;;;;;7.18;3.92;;;;;;;1.68;100.00;98228.28;5056697;28;20129;-84
2024/02/09 05:14:24;;;;;;;6.93;4.53;;;;;;;1.68;100.00;98228.28;5047644;28;20034;-83
2024/02/09 05:16:52;;;;;;;5.88;4.28;;;;;;;1.69;100.00;98225.66;5036575;28;20069;-84
2024/02/09 05:19:18;;;;;;;5.95;4.25;;;;;;;1.67;100.00;98218.81;5026529;28;20041;-84
2024/02/09 05:21:48;;;;;;;7.88;5.10;;;;;;;1.72;100.00;98212.75;5032220;28;20049;-84
2024/02/09 05:24:18;;;;;;;7.80;5.68;;;;;;;1.71;100.00;98208.47;5047260;28;20041;-84
2024/02/09 05:26:46;;;;;;;6.50;4.55;;;;;;;1.69;100.00;98205.03;5051239;28;20495;-84
2024/02/09 05:29:13;;;;;;;8.20;5.22;;;;;;;1.73;100.00;98204.13;5047926;28;20561;-85
2024/02/09 05:31:41;;;;;;;5.93;4.47;;;;;;;1.73;100.00;98209.28;5034893;28;20122;-85
2024/02/09 05:34:08;;;;;;;8.60;5.32;;;;;;;1.70;100.00;98198.16;5054596;28;20044;-85
2024/02/09 05:36:41;;;;;;;10.27;6.25;;;;;;;1.68;100.00;98205.91;5056366;28;20412;-85
2024/02/09 05:39:09;;;;;;;7.78;5.05;;;;;;;1.74;100.00;98199.84;5034803;28;20717;-85
2024/02/09 05:41:36;;;;;;;8.48;4.80;;;;;;;1.71;100.00;98211.03;5037371;28;20048;-86
2024/02/09 05:44:02;;;;;;;7.10;4.68;;;;;;;1.70;100.00;98205.91;5034925;28;20045;-86
2024/02/09 05:46:31;;;;;;;8.38;5.20;;;;;;;1.64;100.00;98199.09;5052855;28;20071;-85
2024/02/09 05:48:58;;;;;;;8.73;5.43;;;;;;;1.72;100.00;98204.16;5037372;28;20048;-86
2024/02/09 05:51:33;;;;;;;8.45;4.53;;;;;;;1.74;100.00;98198.09;5051944;28;20045;-85
2024/02/09 05:54:01;;;;;;;6.65;5.95;;;;;;;1.73;100.00;98192.97;5049364;28;20041;-84
2024/02/09 05:56:29;;;;;;;7.85;5.00;;;;;;;1.78;100.00;98198.91;5029449;28;20046;-85
2024/02/09 05:58:57;;;;;;;8.82;5.18;;;;;;;1.77;100.00;98194.63;5047363;28;20176;-87
2024/02/09 06:01:31;;;;;;;11.10;6.10;;;;;;;1.78;100.00;98184.28;5040350;28;20431;-85
2024/02/09 06:03:58;;;;;;;8.60;6.05;;;;;;;1.83;100.00;98186.81;5048170;28;20037;-86
2024/02/09 06:06:31;;;;;;;9.88;5.70;;;;;;;1.82;100.00;98177.38;5034837;28;20073;-85
2024/02/09 06:09:02;;;;;;;8.57;6.13;;;;;;;1.81;100.00;98188.53;5035052;28;20527;-86
2024/02/09 06:11:30;;;;;;;13.15;5.88;;;;;;;1.78;100.00;98181.69;5046240;28;20120;-84
2024/02/09 06:14:02;;;;;;;8.90;6.00;;;;;;;1.77;100.00;98176.56;5036852;28;20038;-85
2024/02/09 06:16:39;;;;;;;9.98;6.20;;;;;;;1.76;100.00;98172.28;5054570;28;20327;-84
2024/02/09 06:19:07;;;;;;;12.55;5.97;;;;;;;1.80;100.00;98173.97;5052420;28;20033;-84
2024/02/09 06:21:35;;;;;;;8.63;5.93;;;;;;;1.77;100.00;98169.72;5037129;28;20048;-86
2024/02/09 06:24:10;;;;;;;11.75;6.45;;;;;;;1.80;100.00;98179.97;5051514;28;20045;-85
2024/02/09 06:26:39;;;;;;;13.25;6.95;;;;;;;1.82;100.00;98179.94;5050407;28;20045;-84
2024/02/09 06:29:08;;;;;;;9.15;5.80;;;;;;;1.83;100.00;98185.97;5029576;28;20057;-84
2024/02/09 06:31:42;;;;;;;11.40;6.28;;;;;;;1.77;100.00;98182.59;5035945;28;20738;-85
2024/02/09 06:34:12;;;;;;;10.77;6.40;;;;;;;1.79;100.00;98188.56;5031057;28;20087;-86
2024/02/09 06:36:39;;;;;;;9.02;6.35;;;;;;;1.79;100.00;98178.25;5045495;28;20156;-85
2024/02/09 06:39:11;;;;;;;12.18;7.05;;;;;;;1.86;100.00;98179.03;5025009;28;20071;-86
2024/02/09 06:41:38;;;;;;;9.55;6.05;;;;;;;1.92;100.00;98184.09;5030989;28;20079;-86
2024/02/09 06:44:07;;;;;;;11.70;7.35;;;;;;;1.95;100.00;98180.63;5042818;28;20408;-84
2024/02/09 06:46:34;;;;;;;9.90;6.20;;;;;;;1.88;100.00;98179.88;5030648;28;20041;-85
2024/02/09 06:49:07;;;;;;;19.23;8.23;;;;;;;1.89;100.00;98179.00;5032992;28;20542;-83
2024/02/09 06:51:34;;;;;;;10.82;6.82;;;;;;;1.93;100.00;98174.63;5031617;28;20056;-83
2024/02/09 06:54:10;;;;;;;13.13;7.18;;;;;;;1.96;100.00;98177.19;5047871;28;20052;-84
2024/02/09 06:56:36;;;;;;;12.02;7.72;;;;;;;2.00;100.00;98184.00;5051564;28;20080;-85
2024/02/09 06:59:11;;;;;;;15.50;8.80;;;;;;;2.00;100.00;98178.00;5028501;28;20051;-84
2024/02/09 07:01:42;;;;;;;12.25;7.93;;;;;;;2.07;100.00;98183.03;5036968;28;20068;-85
2024/02/09 07:04:16;;;;;;;16.38;9.00;;;;;;;2.09;100.00;98186.44;5034619;28;20060;-86
2024/02/09 07:06:47;;;;;;;;;;;;;;;2.04;100.00;98179.66;5049709;28;20049;-85
2024/02/09 07:09:21;;;;;;;14.45;8.45;;;;;;;2.05;100.00;98187.38;5032027;28;19979;-85
2024/02/09 07:11:57;;;;;;;;;;;;;;;2.05;100.00;98174.47;5037653;28;20053;-84
2024/02/09 07:14:27;;;;;;;12.35;7.68;;;;;;;2.03;100.00;98183.94;5027332;28;20303;-84
2024/02/09 07:16:53;;;;;;;12.07;7.57;;;;;;;2.07;100.00;98188.19;5057317;28;20950;-85
2024/02/09 07:19:22;;;;;;;13.57;8.30;;;;;;;2.09;100.00;98183.88;5028844;28;20041;-83
2024/02/09 07:21:48;;;;;;;10.95;6.72;;;;;;;2.10;100.00;98184.69;5037493;28;20041;-87
2024/02/09 07:24:18;;;;;;;10.68;6.68;;;;;;;2.08;100.00;98178.72;5043899;28;20045;-84
2024/02/09 07:26:52;;;;;;;14.05;7.97;;;;;;;2.11;100.00;98186.41;5050893;28;20045;-85
2024/02/09 07:29:22;;;;;;;14.45;8.30;;;;;;;2.12;100.00;98181.22;5048876;28;20473;-85
2024/02/09 07:31:56;;;;;;;12.65;7.93;;;;;;;2.14;100.00;98186.38;5032782;28;20611;-84
2024/02/09 07:34:22;;;;;;;13.93;8.05;;;;;;;2.19;100.00;98179.44;5039421;28;20037;-85
2024/02/09 07:36:49;;;;;;;13.45;7.57;;;;;;;2.20;100.00;98183.69;5032975;28;20037;-83
2024/02/09 07:39:16;;;;;;;13.30;7.60;;;;;;;2.16;100.00;98179.47;5032454;28;20052;-84
2024/02/09 07:41:45;;;;;;;12.32;8.38;;;;;;;2.18;100.00;98174.28;5028725;28;20873;-85
2024/02/09 07:44:18;;;;;;;13.07;8.48;;;;;;;2.17;100.00;98170.84;5048224;28;20528;-85
2024/02/09 07:46:53;;;;;;;10.98;7.65;;;;;;;2.23;100.00;98164.72;5064140;28;20484;-85
2024/02/09 07:49:26;;;;;;;10.48;8.35;;;;;;;2.23;100.00;98163.03;5043064;28;20052;-84
2024/02/09 07:51:56;;;;;;;16.90;8.88;;;;;;;2.26;100.00;98165.53;5032865;28;20079;-84
2024/02/09 07:54:23;;;;;;;17.33;8.68;;;;;;;2.28;100.00;98166.38;5048968;28;20060;-85
2024/02/09 07:56:54;;;;;;;14.43;8.48;;;;;;;2.31;100.00;98156.00;5039108;28;20068;-85
2024/02/09 07:59:21;;;;;;;17.20;9.50;;;;;;;2.32;100.00;98162.00;5030819;28;20053;-85
2024/02/09 08:01:50;;;;;;;16.50;8.75;;;;;;;2.32;100.00;98164.59;5022805;28;20129;-84
2024/02/09 08:04:18;;;;;;;12.77;7.90;;;;;;;2.35;100.00;98155.94;5036273;28;20049;-84
2024/02/09 08:06:46;;;;;;;17.52;9.50;;;;;;;2.34;100.00;98149.09;5048916;28;20493;-86
2024/02/09 08:09:16;;;;;;;14.18;8.52;;;;;;;2.29;100.00;98150.03;5031100;28;20052;-87
2024/02/09 08:11:48;;;;;;;15.75;7.95;;;;;;;2.35;100.00;98143.91;5045778;28;20053;-85
2024/02/09 08:14:17;;;;;;;12.95;7.75;;;;;;;2.35;100.00;98145.63;5030427;28;20416;-85
2024/02/09 08:16:46;;;;;;;15.35;8.07;;;;;;;2.38;100.00;98140.41;5032451;28;20045;-86
2024/02/09 08:19:15;;;;;;;17.00;9.68;;;;;;;2.38;100.00;98145.59;5027289;28;20048;-85
2024/02/09 08:21:42;;;;;;;16.42;8.38;;;;;;;2.42;100.00;98148.06;5036187;28;20045;-86
2024/02/09 08:24:14;;;;;;;15.98;9.43;;;;;;;2.44;100.00;98137.75;5029259;28;20224;-84
2024/02/09 08:26:41;;;;;;;11.30;7.72;;;;;;;2.45;100.00;98140.28;5049437;28;20411;-84
2024/02/09 08:29:08;;;;;;;14.43;8.60;;;;;;;2.53;100.00;98144.47;5031341;28;20044;-85
2024/02/09 08:31:36;;;;;;;17.52;9.75;;;;;;;2.56;100.00;98141.84;5029445;28;20416;-83
2024/02/09 08:34:05;;;;;;;17.85;10.13;;;;;;;2.56;100.00;98144.44;5032789;28;20033;-84
2024/02/09 08:36:32;;;;;;;19.75;10.73;;;;;;;2.63;100.00;98138.25;5025439;28;20056;-84
2024/02/09 08:39:00;;;;;;;18.33;10.07;;;;;;;2.61;100.00;98138.28;5043848;28;20123;-84
2024/02/09 08:41:27;;;;;;;15.88;10.27;;;;;;;2.71;100.00;98126.09;5030302;28;20049;-83
2024/02/09 08:43:56;;;;;;;15.32;10.63;;;;;;;2.78;100.00;98127.66;5049614;28;20057;-86
2024/02/09 08:46:23;;;;;;;19.15;9.63;;;;;;;2.80;100.00;98128.50;5034284;28;20271;-86
2024/02/09 08:48:50;;;;;;;19.50;9.18;;;;;;;2.85;100.00;98122.38;5029490;28;20075;-84
2024/02/09 08:51:17;;;;;;;20.90;9.93;;;;;;;2.90;100.00;98120.56;5045352;28;20064;-84
2024/02/09 08:53:43;;;;;;;21.90;10.57;;;;;;;2.93;100.00;98123.97;5027977;28;20057;-85
2024/02/09 08:56:10;;;;;;;21.60;10.65;;;;;;;2.98;100.00;98118.69;5034159;28;20183;-85
2024/02/09 08:58:37;;;;;;;16.40;9.25;;;;;;;3.00;100.00;98110.91;5047036;28;20516;-83
2024/02/09 09:01:43;;;;;;;19.27;10.02;;;;;;;3.07;100.00;98120.25;5049919;28;20049;-85
2024/02/09 09:04:27;;;;;;;20.02;11.02;;;;;;;3.13;100.00;98118.38;5046488;28;20098;-86
2024/02/09 09:06:54;;;;;;;20.60;10.98;;;;;;;3.18;100.00;98104.53;5033339;28;20052;-86
2024/02/09 09:09:21;;;;;;;22.25;10.95;;;;;;;3.30;100.00;98110.28;5049576;28;20041;-83
2024/02/09 09:11:48;;;;;;;21.40;11.75;;;;;;;3.37;100.00;98105.84;5030480;28;20408;-86
2024/02/09 09:14:18;;;;;;;23.85;11.40;;;;;;;3.29;100.00;98100.81;5040915;28;20041;-84
2024/02/09 09:16:53;;;;;;;16.63;9.70;;;;;;;3.40;100.00;98094.59;5031232;28;20184;-84
2024/02/09 09:19:22;;;;;;;22.75;11.95;;;;;;;3.48;100.00;98101.31;5050611;28;20459;-86
2024/02/09 09:21:55;;;;;;;20.88;11.43;;;;;;;3.54;100.00;98108.06;5029575;28;20124;-86
2024/02/09 09:24:23;;;;;;;18.58;10.82;;;;;;;3.56;100.00;98097.69;5047513;28;20041;-86
2024/02/09 09:26:56;;;;;;;20.65;11.35;;;;;;;3.59;100.00;98102.81;5045247;28;20045;-84
2024/02/09 09:29:27;;;;;;;16.90;10.82;;;;;;;3.67;100.00;98097.47;5031066;28;20500;-85
2024/02/09 09:31:54;;;;;;;19.65;10.25;;;;;;;3.79;100.00;98094.59;5039882;28;20059;-85
2024/02/09 09:34:21;;;;;;;20.45;11.27;;;;;;;3.95;100.00;98097.66;5029807;28;20037;-83
2024/02/09 09:36:47;;;;;;;21.77;12.15;;;;;;;4.04;100.00;98092.31;5052818;28;20058;-83
2024/02/09 09:39:20;;;;;;;20.50;10.75;;;;;;;4.07;100.00;98084.44;5030149;28;20255;-84
2024/02/09 09:41:48;;;;;;;18.20;10.87;;;;;;;4.16;100.00;98083.38;5050727;28;20072;-85
2024/02/09 09:44:17;;;;;;;21.52;11.88;;;;;;;4.22;100.00;98077.19;5018935;28;20049;-85
2024/02/09 09:46:45;;;;;;;22.33;11.45;;;;;;;4.29;100.00;98089.13;5035068;28;20763;-84
2024/02/09 09:49:15;;;;;;;20.25;10.45;;;;;;;4.31;100.00;98074.38;5030113;28;20215;-83
2024/02/09 09:51:56;;;;;;;17.30;10.95;;;;;;;4.37;100.00;98078.53;5041043;28;20124;-84
2024/02/09 09:54:34;;;;;;;17.40;10.18;;;;;;;4.42;100.00;98077.56;5038370;28;20036;-85
2024/02/09 09:57:03;;;;;;;18.13;9.32;;;;;;;4.49;100.00;98080.84;5046127;28;20069;-86
2024/02/09 09:59:36;;;;;;;21.98;12.95;;;;;;;4.52;100.00;98079.91;5053177;28;20045;-83
2024/02/09 10:02:06;;;;;;;23.35;11.00;;;;;;;4.54;100.00;98081.56;5052063;28;20052;-85
2024/02/09 10:04:32;;;;;;;16.73;10.13;;;;;;;4.53;100.00;98092.81;5052255;28;20128;-83
2024/02/09 10:07:05;;;;;;;16.88;9.23;;;;;;;4.55;100.00;98098.81;5016493;28;20057;-84
2024/02/09 10:09:32;;;;;;;17.35;10.77;;;;;;;4.57;100.00;98091.84;5034201;28;20069;-83
2024/02/09 10:12:01;;;;;;;17.10;10.10;;;;;;;4.61;100.00;98088.28;5052089;28;20076;-84
2024/02/09 10:14:28;;;;;;;16.15;9.93;;;;;;;4.62;100.00;98089.13;5028867;28;20447;-85
2024/02/09 10:16:57;;;;;;;18.08;10.65;;;;;;;4.65;100.00;98083.88;5051984;28;20049;-85
2024/02/09 10:19:30;;;;;;;18.02;9.90;;;;;;;4.71;100.00;98083.72;5021561;28;20083;-84
2024/02/09 10:21:57;;;;;;;;;;;;;;;4.85;100.00;98074.72;5039881;28;20072;-86
2024/02/09 10:24:28;;;;;;;19.65;9.82;;;;;;;4.99;100.00;98077.78;5036641;28;19927;-86
2024/02/09 10:27:08;;;;;;;16.80;9.82;;;;;;;5.13;100.00;98073.03;5055317;28;20049;-85
2024/02/09 10:29:39;;;;;;;23.38;10.48;;;;;;;5.14;100.00;98077.34;5040362;28;20048;-85
2024/02/09 10:32:10;;;;;;;18.60;9.88;;;;;;;5.21;100.00;98074.56;5045375;28;20076;-84
2024/02/09 10:34:36;;;;;;;16.45;9.77;;;;;;;5.27;100.00;98074.41;5039394;28;20046;-83
2024/02/09 10:37:11;;;;;;;17.63;9.60;;;;;;;5.40;100.00;98069.72;5011799;28;20135;-83
2024/02/09 10:39:39;;;;;;;16.98;9.10;;;;;;;5.51;100.00;98077.16;5037582;28;20111;-84
2024/02/09 10:42:09;;;;;;;20.30;9.45;;;;;;;5.53;100.00;98078.81;5051546;28;20072;-85
2024/02/09 10:44:39;;;;;;;14.95;9.80;;;;;;;5.56;100.00;98077.88;5055618;28;20049;-84
2024/02/09 10:47:10;;;;;;;15.93;10.25;;;;;;;5.58;100.00;98076.06;5059599;28;20045;-85
2024/02/09 10:49:40;;;;;;;18.00;9.27;;;;;;;5.60;100.00;98080.31;5052094;28;20403;-83
2024/02/09 10:52:10;;;;;;;17.77;9.45;;;;;;;5.67;100.00;98072.38;5058616;28;20432;-83
2024/02/09 10:54:56;;;;;;;16.55;10.20;;;;;;;5.81;100.00;98085.75;5047013;28;20041;-83
2024/02/09 10:57:29;;;;;;;18.30;10.10;;;;;;;5.88;100.00;98076.91;5043585;28;20447;-85
2024/02/09 11:00:00;;;;;;;16.30;10.32;;;;;;;6.00;100.00;98073.09;5045738;28;20168;-86
2024/02/09 11:02:30;;;;;;;15.75;9.63;;;;;;;6.14;100.00;98070.06;5034515;28;20061;-84
2024/02/09 11:05:01;;;;;;;15.65;10.63;;;;;;;6.27;100.00;98076.53;5034924;28;20045;-85
2024/02/09 11:07:42;;;;;;;18.13;10.55;;;;;;;6.41;100.00;98062.25;5035572;28;20169;-83
2024/02/09 11:10:18;;;;;;;17.90;9.52;;;;;;;6.57;100.00;98059.97;5055131;28;20045;-86
2024/02/09 11:12:45;;;;;;;24.23;10.45;;;;;;;6.69;100.00;98062.16;5038030;28;20476;-84
2024/02/09 11:15:18;;;;;;;15.98;9.68;;;;;;;6.72;100.00;98049.03;5037584;28;20033;-84
2024/02/09 11:17:49;;;;;;;15.77;9.70;;;;;;;6.75;100.00;98045.47;5038169;28;20046;-85
2024/02/09 11:20:18;;;;;;;13.32;9.02;;;;;;;6.81;100.00;98041.81;5037538;28;20135;-86
2024/02/09 11:23:00;;;;;;;14.00;9.43;;;;;;;6.90;100.00;98041.50;5046253;28;20045;-85
2024/02/09 11:25:28;;;;;;;12.38;9.05;;;;;;;6.99;100.00;98040.28;5043482;28;20407;-85
2024/02/09 11:27:57;;;;;;;15.65;8.70;;;;;;;6.98;100.00;98044.66;5037422;28;20085;-84
2024/02/09 11:30:29;;;;;;;15.55;8.77;;;;;;;7.07;100.00;98036.50;5052973;28;20112;-85
2024/02/09 11:33:03;;;;;;;17.05;8.63;;;;;;;7.11;100.00;98034.66;5056312;28;20057;-85
2024/02/09 11:35:35;;;;;;;12.68;8.05;;;;;;;7.17;100.00;98034.44;5036809;28;20057;-85
2024/02/09 11:38:02;;;;;;;14.82;8.77;;;;;;;7.30;100.00;98040.03;5052672;28;20051;-85
2024/02/09 11:40:29;;;;;;;11.82;7.70;;;;;;;7.59;100.00;98023.28;5051807;28;20076;-86
2024/02/09 11:42:55;;;;;;;9.02;6.25;;;;;;;8.05;100.00;98035.38;5038751;28;20052;-84
2024/02/09 11:45:26;;;;;;;7.55;4.18;;;;;;;8.34;100.00;98028.09;5035444;28;20037;-85
2024/02/09 11:47:55;;;;;;;5.03;3.83;;;;;;;8.60;100.00;98024.41;5057198;28;20049;-85
2024/02/09 11:50:27;;;;;;;4.18;1.85;;;;;;;8.88;100.00;98024.06;5032814;28;20472;-85
2024/02/09 11:53:04;;;;;;;6.28;2.53;;;;;;;9.01;100.00;98005.22;5052139;28;20053;-81
2024/02/09 11:55:30;;;;;;;5.50;2.35;;;;;;;9.04;100.00;98015.56;5028636;28;20125;-82
2024/02/09 11:57:57;;;;;;;3.25;1.70;;;;;;;9.09;100.00;98006.59;5050466;28;20052;-83
2024/02/09 12:00:25;;;;;;;6.55;2.45;;;;;;;9.16;100.00;98014.16;5030018;28;20066;-84
2024/02/09 12:02:58;;;;;;;1.60;1.48;;;;;;;9.23;100.00;98021.63;5047959;28;20047;-84
2024/02/09 12:05:28;;;;;;;4.43;2.53;;;;;;;9.34;100.00;98012.47;5051280;28;20483;-84
2024/02/09 12:07:56;;;;;;;1.52;1.20;;;;;;;9.43;100.00;98001.56;5050572;28;20084;-84
2024/02/09 12:10:30;;;;;;;5.30;2.95;;;;;;;9.55;100.00;98006.22;5070339;28;20128;-86
2024/02/09 12:13:00;;;;;;;2.47;1.75;;;;;;;9.63;100.00;97998.00;5036573;28;20056;-85
2024/02/09 12:15:29;;;;;;;1.95;1.65;;;;;;;9.67;100.00;97994.31;5054836;28;20124;-86
2024/02/09 12:18:02;;;;;;;2.20;1.63;;;;;;;9.79;100.00;97997.28;5049135;28;20041;-85
2024/02/09 12:20:32;;;;;;;2.72;1.50;;;;;;;9.91;100.00;97994.91;5038663;28;20256;-85
2024/02/09 12:23:05;;;;;;;4.65;1.90;;;;;;;9.96;100.00;97991.22;5057849;28;20045;-86
2024/02/09 12:25:37;;;;;;;3.97;2.00;;;;;;;10.04;100.00;97991.72;5056842;28;20040;-84
2024/02/09 12:28:09;;;;;;;3.67;1.40;;;;;;;10.11;100.00;97990.47;5041871;28;20060;-85
2024/02/09 12:30:40;;;;;;;3.63;1.98;;;;;;;10.20;100.00;97983.94;5041349;28;20053;-85
2024/02/09 12:36:27;;;;;;;2.88;1.17;;;;;;;10.24;100.00;97990.72;5045249;28;20013;-85
2024/02/09 12:38:56;;;;;;;1.40;1.13;;;;;;;10.30;100.00;97992.16;5043836;28;20057;-85
2024/02/09 12:41:36;;;;;;;2.05;0.80;;;;;;;10.38;100.00;97983.03;5037746;28;20049;-85
2024/02/09 12:44:08;;;;;;;2.83;0.70;;;;;;;10.38;100.00;97982.19;5043122;28;20564;-85
2024/02/09 12:46:42;;;;;;;3.10;1.15;;;;;;;10.33;100.00;97986.78;5040677;28;20074;-84
2024/02/09 12:49:19;;;;;;;1.77;0.80;;;;;;;10.31;100.00;97983.38;5043944;28;20088;-86
2024/02/09 12:51:47;;;;;;;1.50;0.80;;;;;;;10.37;100.00;97980.50;5056437;28;20044;-86
2024/02/09 12:54:17;;;;;;;1.70;0.80;;;;;;;10.45;100.00;97977.50;5049281;28;20049;-86
2024/02/09 12:56:48;;;;;;;3.90;1.45;;;;;;;10.41;100.00;97977.63;5024417;28;20135;-84
2024/02/09 12:59:15;;;;;;;0.90;0.90;;;;;;;10.46;100.00;97979.19;5058715;28;20045;-86
2024/02/09 13:01:44;;;;;;;2.10;0.93;;;;;;;10.54;100.00;97980.47;5055757;28;20061;-83
2024/02/09 13:04:23;;;;;;;3.55;1.25;;;;;;;10.57;100.00;97975.09;5031503;28;20049;-85
2024/02/09 13:06:54;;;;;;;2.63;1.30;;;;;;;10.62;100.00;97977.47;5038995;28;20072;-85
2024/02/09 13:09:43;;;;;;;2.58;1.33;;;;;;;10.75;100.00;97977.66;5045679;28;20541;-86
2024/02/09 13:12:17;;;;;;;1.35;1.20;;;;;;;10.79;100.00;97967.88;5026539;28;20061;-85
2024/02/09 13:14:47;;;;;;;1.73;1.15;;;;;;;10.79;100.00;97966.09;5059932;28;20136;-86
2024/02/09 13:17:16;;;;;;;1.25;0.82;;;;;;;10.83;100.00;97962.38;5040040;28;20048;-86
2024/02/09 13:19:45;;;;;;;1.92;1.13;;;;;;;10.87;100.00;97966.56;5059984;28;20106;-85
2024/02/09 13:22:13;;;;;;;1.88;1.15;;;;;;;10.98;100.00;97970.38;5042197;28;20050;-86
2024/02/09 13:24:40;;;;;;;1.30;1.23;;;;;;;10.99;100.00;97969.44;5060974;28;20052;-86
2024/02/09 13:27:12;;;;;;;2.08;0.88;;;;;;;11.03;100.00;97970.94;5055762;28;20037;-84
2024/02/09 13:29:50;;;;;;;1.20;1.00;;;;;;;11.19;100.00;97963.97;5039580;28;20049;-84
2024/02/09 13:32:18;;;;;;;1.98;1.10;;;;;;;11.34;100.00;97951.81;5045787;28;20061;-85
2024/02/09 13:34:45;;;;;;;1.95;0.70;;;;;;;11.54;100.00;97955.91;5054674;28;20049;-85